Boca Raton, FL (33427)

10:17 AM EST on March 05, 2015 (GMT -0500)
Boca Surf Cam . Com | Change Station
CLOSE
Current Station
Personal Weather Station
Location: Boca Raton, FL
Elevation: 26 ft
Nearby Weather Stations

Elev 26 ft 26.35 °N, 80.07 °W | Updated 3 minutes ago

Partly Cloudy
Partly Cloudy
79.9 °F
Feels Like 83 °F
N
14.0
Wind Variable Wind from SW

Today
High -- | Low -- °F
--% Chance of Precip.
Yesterday
High -- | Low -- °F
Precip. -- in
6:40 AM 6:23 PM
Full, 100% visible
Pressure 30.14 in
Visibility 10.0 miles
Clouds Scattered Clouds 2400 ft
Heat Index 83 °F
Dew Point 70 °F
Humidity 73%
Rainfall in
Snow Depth Not available.
UV 5 out of 12
Pollen 10.90 out of 12
Air Quality Not available.
Flu Activity Not available.
METAR KPMP 051453Z 14015G20KT 10SM SCT024 27/21 A3014 RMK AO2 SLP207 T02670211 51018

More Conditions Fewer Conditions

Pressure 30.14 in
Visibility 10.0 miles
Clouds Scattered Clouds 2400 ft
Heat Index 83 °F
Dew Point 70 °F
Humidity 73%
Rainfall in
Snow Depth Not available.
UV 5 out of 12
Pollen 10.90 out of 12
Air Quality Not available.
Flu Activity Not available.
METAR KPMP 051453Z 14015G20KT 10SM SCT024 27/21 A3014 RMK AO2 SLP207 T02670211 51018

More Conditions Fewer Conditions

10-Day Weather Forecast

Almanac

Astronomy

Mar. 05, 2015 Rise Set
Actual Time
Civil Twilight
Nautical Twilight
Astronomical Twilight
Moon
Length of Visible Light
Length of Day
Tomorrow will be .
, % of the Moon is Illuminated

Today's Extremes

State Highs State Lows

Community

WunderPhotos

Upload Photos

1,802,806 photos uploaded!

WunderBlogs® & News

Nearby

Air Quality

  Air Quality AQ Index Pollutant
Not available.

Snow Depth

Station Depth Elevation

Earthquake Activity

City Distance Mag. Time & Date
Minimum magnitude displayed is 2.5.

Coastal Water Temperatures

Place Temperature

Nearby Weather Stations